Tropical Cyclones
[Index]
Main Index Home Page Stock Weather Photos Extreme Storms Discussion Storm News and Storm Chasing Reports Tropical Cyclones / Hurricanes / Typhoons Weather Data and Links Wild Fires / Bushfires Weather Observation Techniques Weather Picture Catalogue Tornado Pictures and Reports Stock Video Footage and DVDs for sale
Season 2007-2008 Tropical Cyclone MELANIE Track Map
Season 2007-2008 Summaries: [BoM-AU] [JTWC-AU] [JTWC-SIO] [JTWC-SPAC] [JTWC-SH]
<<- Previous TC | BoM 2007-2008 Season | Next TC ->>

click for intensity scale information  Lat/long Grid: Show Hide

 Date Labels: Show Hide

Bureau of Meteorology Tropical Cyclone Data

Name: MELANIE
Number: 912 / 200708_06

26 Dec 2007 06:00 UTC to 02 Jan 2008 06:00 UTC

    date/time    lat    long    hPa   cat  kts
2007-12-26 06   10.0   117.0                            
2007-12-26 12   10.8   117.0                            
2007-12-26 18   11.5   117.0                            
2007-12-27 00   12.2   117.0    998         20          
2007-12-27 06   13.0   117.1    998         20          
2007-12-27 12   13.4   117.4    994    1    25          
2007-12-27 18   13.7   117.7    990    1    30          
2007-12-28 00   13.9   117.8    986    1    35          
2007-12-28 06   14.4   117.9    982    2    40          
2007-12-28 12   15.1   118.0    976    2    45          
2007-12-28 18   16.3   117.9    970    3    50          
2007-12-29 00   16.7   117.6    962    3    55          
2007-12-29 06   17.3   116.8    962    3    60          
2007-12-29 12   17.7   116.0    962    3    60          
2007-12-29 18   18.0   115.0    964    3    55          
2007-12-30 00   18.4   113.9    964    3    55          
2007-12-30 06   18.7   113.2    964    3    55          
2007-12-30 12   18.8   112.8    964    3    55          
2007-12-30 18   18.8   112.4    972    2    50          
2007-12-31 00   18.8   112.0    972    2    50          
2007-12-31 06   18.8   111.7    976    2    45          
2007-12-31 12   19.0   111.3    976    2    45          
2007-12-31 18   19.2   111.1    984    2    40          
2008-01-01 00   19.7   110.7    984    2    40          
2008-01-01 06   20.4   110.4    984    2    40          
2008-01-01 12   21.3   110.0    986    1    35          
2008-01-01 18   21.9   109.3    990    1    30          
2008-01-02 00   22.5   108.4    992    1    25          
2008-01-02 06   22.9   107.8    992    1    25          
Winds are 10-min average.

Tropical cyclone tracks developed by Michael Bath using data from the Bureau of Meteorology and Google Maps.


[Australian Severe Weather index] [Copyright Notice] [Email Contacts] [Search This Site] [Privacy Policy]
Document: tropical_cyclone_melanie.htm Updated: 29 June 2017